Time;durP1;ratioP1;P1;durP2;ratioP2;P2;SDS_P1;SDS_P2;PMS_P1;PMS_P2;Temp;Humidity;BMP_temperature;BMP_pressure;BME280_temperature;BME280_humidity;BME280_pressure;Samples;Min_cycle;Max_cycle;Signal;HPM_P1;HPM_P2
2021/12/26 00:00:42;;;;;;;;;;;-7.70;99.90;;;;;;5073849;28;20296;-44
2021/12/26 00:03:08;;;;;;;17.67;8.45;;;-7.70;99.90;;;;;;5069826;28;20385;-43
2021/12/26 00:05:34;;;;;;;25.40;9.70;;;-7.70;99.90;;;;;;5067526;28;20025;-43
2021/12/26 00:07:59;;;;;;;22.83;9.00;;;-7.70;99.90;;;;;;5066959;28;20024;-44
2021/12/26 00:10:26;;;;;;;18.30;9.52;;;-7.70;99.90;;;;;;5067549;28;20032;-43
2021/12/26 00:12:53;;;;;;;17.08;11.07;;;-7.80;99.90;;;;;;5067217;28;20032;-43
2021/12/26 00:15:19;;;;;;;20.50;9.23;;;-7.80;99.90;;;;;;5066936;28;20359;-43
2021/12/26 00:17:45;;;;;;;18.30;8.57;;;-7.80;99.90;;;;;;5066974;28;20367;-44
2021/12/26 00:20:11;;;;;;;14.10;7.85;;;-7.90;99.90;;;;;;5067449;28;20171;-44
2021/12/26 00:22:38;;;;;;;20.10;8.35;;;-7.90;99.90;;;;;;5099961;28;20024;-43
2021/12/26 00:25:05;;;;;;;17.00;8.93;;;-7.90;99.90;;;;;;5069407;28;20115;-43
2021/12/26 00:27:31;;;;;;;19.23;8.27;;;-7.90;99.90;;;;;;5086266;28;20020;-45
2021/12/26 00:29:57;;;;;;;23.65;8.90;;;-7.90;99.90;;;;;;5069113;28;21702;-45
2021/12/26 00:32:22;;;;;;;19.33;9.00;;;-7.90;99.90;;;;;;5083429;28;20027;-46
2021/12/26 00:34:50;;;;;;;16.95;8.05;;;-8.00;99.90;;;;;;5078024;28;20043;-44
2021/12/26 00:37:16;;;;;;;15.40;8.00;;;-8.00;99.90;;;;;;5070855;28;20466;-44
2021/12/26 00:39:41;;;;;;;22.45;9.15;;;-8.00;99.90;;;;;;5071100;28;20032;-44
2021/12/26 00:42:07;;;;;;;16.42;8.70;;;-8.00;99.90;;;;;;5071156;28;20101;-44
2021/12/26 00:44:38;;;;;;;16.65;8.02;;;-8.00;99.90;;;;;;5071034;28;20453;-44
2021/12/26 00:47:18;;;;;;;15.48;7.72;;;-8.00;99.90;;;;;;5069639;28;20047;-44
2021/12/26 00:49:43;;;;;;;16.20;8.65;;;-8.00;99.90;;;;;;5070907;28;20024;-44
2021/12/26 00:52:09;;;;;;;18.33;7.70;;;-8.00;99.90;;;;;;5070879;28;20389;-46
2021/12/26 00:54:35;;;;;;;19.08;8.55;;;-8.00;99.90;;;;;;5070647;28;20016;-44
2021/12/26 00:57:01;;;;;;;15.00;7.20;;;-8.00;99.90;;;;;;5071276;28;20112;-44
2021/12/26 00:59:27;;;;;;;19.85;8.02;;;-8.00;99.90;;;;;;5070364;28;20016;-46
2021/12/26 01:01:53;;;;;;;21.83;8.45;;;-8.10;99.90;;;;;;5078506;28;20023;-45
2021/12/26 01:04:20;;;;;;;13.82;7.82;;;-8.10;99.90;;;;;;5090979;28;20081;-44
2021/12/26 01:06:46;;;;;;;14.73;7.72;;;-8.10;99.90;;;;;;5070320;28;20270;-45
2021/12/26 01:09:16;;;;;;;18.75;8.25;;;-8.10;99.90;;;;;;5069789;28;20424;-44
2021/12/26 01:11:45;;;;;;;22.83;8.88;;;-8.10;99.90;;;;;;5070782;28;20150;-44
2021/12/26 01:14:12;;;;;;;14.52;7.97;;;-8.10;99.90;;;;;;5070295;28;20374;-44
2021/12/26 01:16:39;;;;;;;16.42;8.80;;;-8.10;99.90;;;;;;5069972;28;20118;-44
2021/12/26 01:19:13;;;;;;;17.10;8.80;;;-8.10;99.90;;;;;;5069920;28;20371;-45
2021/12/26 01:21:40;;;;;;;21.02;8.88;;;-8.10;99.90;;;;;;5070612;28;20024;-45
2021/12/26 01:24:09;;;;;;;18.50;8.27;;;-8.10;99.90;;;;;;5069686;28;20390;-46
2021/12/26 01:26:35;;;;;;;19.80;8.70;;;-8.10;99.90;;;;;;5069987;28;20063;-44
2021/12/26 01:29:03;;;;;;;19.48;8.63;;;-8.20;99.90;;;;;;5069754;28;20021;-44
2021/12/26 01:31:28;;;;;;;17.45;7.85;;;-8.20;99.90;;;;;;5077283;28;20032;-45
2021/12/26 01:33:58;;;;;;;23.48;12.05;;;-8.20;99.90;;;;;;5087035;28;20028;-44
2021/12/26 01:36:26;;;;;;;18.05;9.23;;;-8.20;99.90;;;;;;5081641;28;20048;-45
2021/12/26 01:38:52;;;;;;;19.42;10.00;;;-8.20;99.90;;;;;;5069932;28;20098;-44
2021/12/26 01:41:18;;;;;;;16.40;9.10;;;-8.20;99.90;;;;;;5070043;28;20032;-44
2021/12/26 01:43:47;;;;;;;17.13;8.10;;;-8.20;99.90;;;;;;5069955;28;20048;-44
2021/12/26 01:46:14;;;;;;;16.85;7.80;;;-8.20;99.90;;;;;;5069531;28;20024;-44
2021/12/26 01:48:39;;;;;;;14.93;7.78;;;-8.20;99.90;;;;;;5069189;28;20032;-43
2021/12/26 01:51:05;;;;;;;15.18;8.00;;;-8.20;99.90;;;;;;5069688;28;20367;-46
2021/12/26 01:53:38;;;;;;;14.68;8.52;;;-8.30;99.90;;;;;;5069714;28;20075;-44
2021/12/26 01:56:12;;;;;;;15.18;7.88;;;-8.20;99.90;;;;;;5068518;28;20493;-44
2021/12/26 01:58:38;;;;;;;20.77;8.43;;;-8.20;99.90;;;;;;5049149;28;20267;-44
2021/12/26 02:01:08;;;;;;;14.15;7.72;;;-8.30;99.90;;;;;;5068883;28;20066;-44
2021/12/26 02:03:35;;;;;;;16.10;7.75;;;-8.30;99.90;;;;;;5083394;28;20028;-44
2021/12/26 02:06:01;;;;;;;15.40;7.60;;;-8.30;99.90;;;;;;5089769;28;20059;-46
2021/12/26 02:08:26;;;;;;;16.08;7.32;;;-8.30;99.90;;;;;;5072181;28;20262;-45
2021/12/26 02:10:52;;;;;;;17.45;8.30;;;-8.40;99.90;;;;;;5070010;28;20035;-44
2021/12/26 02:13:18;;;;;;;16.35;6.68;;;-8.40;99.90;;;;;;5069428;28;20668;-47
2021/12/26 02:15:43;;;;;;;17.15;9.43;;;-8.40;99.90;;;;;;5069204;28;20029;-45
2021/12/26 02:18:11;;;;;;;14.38;7.18;;;-8.30;99.90;;;;;;5068951;28;20478;-44
2021/12/26 02:23:30;;;;;;;19.23;8.27;;;-8.40;99.90;;;;;;5069792;28;20110;-46
2021/12/26 02:28:24;;;;;;;16.50;7.55;;;-8.50;99.90;;;;;;5068153;28;20036;-44
2021/12/26 02:30:52;;;;;;;16.40;7.60;;;-8.50;99.90;;;;;;5074903;28;20078;-44
2021/12/26 02:33:19;;;;;;;15.23;7.60;;;-8.60;99.90;;;;;;5080703;28;20071;-44
2021/12/26 02:35:46;;;;;;;14.95;7.85;;;-8.60;99.90;;;;;;5089167;28;20020;-46
2021/12/26 02:38:12;;;;;;;14.48;6.82;;;-8.60;99.90;;;;;;5082830;28;20452;-44
2021/12/26 02:40:42;;;;;;;14.23;7.13;;;-8.60;99.90;;;;;;5068552;28;20229;-44
2021/12/26 02:43:08;;;;;;;12.43;7.47;;;-8.60;99.90;;;;;;5068786;28;20029;-45
2021/12/26 02:45:35;;;;;;;14.70;8.02;;;-8.70;99.90;;;;;;5068478;28;20028;-45
2021/12/26 02:48:01;;;;;;;15.38;7.93;;;-8.70;99.90;;;;;;5067267;28;20452;-45
2021/12/26 02:50:30;;;;;;;13.10;6.93;;;-8.70;99.90;;;;;;5068136;28;20372;-44
2021/12/26 02:52:59;;;;;;;16.30;7.85;;;-8.70;99.90;;;;;;5067857;28;20016;-44
2021/12/26 02:55:25;;;;;;;14.23;7.70;;;-8.70;99.90;;;;;;5067855;28;20048;-44
2021/12/26 02:57:57;;;;;;;17.70;7.57;;;-8.70;99.90;;;;;;5067729;28;20028;-45
2021/12/26 03:00:27;;;;;;;13.48;6.88;;;-8.70;99.90;;;;;;5071573;28;20247;-43
2021/12/26 03:02:56;;;;;;;20.52;7.70;;;-8.70;99.90;;;;;;5080029;28;20020;-43
2021/12/26 03:05:29;;;;;;;21.30;8.55;;;-8.70;99.90;;;;;;5087153;28;20084;-45
2021/12/26 03:07:55;;;;;;;16.98;7.65;;;-8.70;99.90;;;;;;5086624;28;20430;-43
2021/12/26 03:10:24;;;;;;;19.92;8.10;;;-8.80;99.90;;;;;;5066244;28;20028;-43
2021/12/26 03:12:53;;;;;;;14.38;7.30;;;-8.80;99.90;;;;;;5060907;28;20016;-45
2021/12/26 03:15:18;;;;;;;17.23;8.18;;;-8.80;99.90;;;;;;5067565;28;20036;-43
2021/12/26 03:17:45;;;;;;;14.02;7.55;;;-8.80;99.90;;;;;;5067283;28;20027;-44
2021/12/26 03:20:13;;;;;;;17.88;7.50;;;-8.80;99.90;;;;;;5067643;28;20028;-43
2021/12/26 03:22:40;;;;;;;13.18;6.57;;;-8.80;99.90;;;;;;5067303;28;20039;-43
2021/12/26 03:25:10;;;;;;;15.52;8.23;;;-8.80;99.90;;;;;;5067424;28;20028;-45
2021/12/26 03:27:35;;;;;;;11.88;6.45;;;-8.80;99.90;;;;;;5063698;28;20028;-45
2021/12/26 03:30:01;;;;;;;13.60;7.95;;;-8.80;99.90;;;;;;5066840;28;20042;-43
2021/12/26 03:32:27;;;;;;;13.27;7.57;;;-8.80;99.90;;;;;;5066785;28;20032;-43
2021/12/26 03:34:53;;;;;;;15.55;7.05;;;-8.80;99.90;;;;;;5065228;28;20400;-43
2021/12/26 03:37:18;;;;;;;15.68;7.60;;;-8.80;99.90;;;;;;5065559;28;20033;-43
2021/12/26 03:39:44;;;;;;;17.02;7.72;;;-8.80;99.90;;;;;;5066068;28;20029;-43
2021/12/26 03:42:10;;;;;;;14.93;7.53;;;-8.90;99.90;;;;;;5066256;28;20028;-43
2021/12/26 03:44:36;;;;;;;16.10;7.47;;;-8.80;99.90;;;;;;5066029;28;20474;-43
2021/12/26 03:47:03;;;;;;;13.05;7.30;;;-8.80;99.90;;;;;;5063772;28;20025;-43
2021/12/26 03:49:29;;;;;;;13.88;7.45;;;-8.90;99.90;;;;;;5065278;28;20460;-43
2021/12/26 03:51:54;;;;;;;17.02;8.57;;;-8.90;99.90;;;;;;5065817;28;20016;-44
2021/12/26 03:54:20;;;;;;;16.27;7.15;;;-8.90;99.90;;;;;;5066390;28;20028;-44
2021/12/26 03:56:45;;;;;;;13.02;7.60;;;-9.00;99.90;;;;;;5065876;28;20447;-45
2021/12/26 03:59:11;;;;;;;18.15;8.57;;;-9.00;99.90;;;;;;5064647;28;20037;-43
2021/12/26 04:01:37;;;;;;;13.48;6.43;;;-9.00;99.90;;;;;;5091740;28;20586;-43
2021/12/26 04:04:03;;;;;;;17.15;6.53;;;-9.00;99.90;;;;;;5066958;28;20025;-44
2021/12/26 04:06:29;;;;;;;21.60;8.43;;;-9.00;99.90;;;;;;5066618;28;20039;-44
2021/12/26 04:08:55;;;;;;;18.00;8.02;;;-9.00;99.90;;;;;;5065333;28;20024;-44
2021/12/26 04:11:21;;;;;;;18.75;8.63;;;-9.00;99.90;;;;;;5066485;28;20363;-44
2021/12/26 04:13:47;;;;;;;15.40;8.20;;;-9.00;99.90;;;;;;5063618;28;20386;-47
2021/12/26 04:16:13;;;;;;;18.90;9.07;;;-9.00;99.90;;;;;;5066212;28;20035;-45
2021/12/26 04:18:38;;;;;;;12.50;7.43;;;-9.00;99.90;;;;;;5065874;28;20520;-44
2021/12/26 04:21:05;;;;;;;16.15;8.18;;;-9.00;99.90;;;;;;5064265;28;20017;-43
2021/12/26 04:23:32;;;;;;;19.75;8.20;;;-9.10;99.90;;;;;;5065947;28;20016;-44
2021/12/26 04:25:57;;;;;;;18.30;8.40;;;-9.10;99.90;;;;;;5064489;28;20243;-43
2021/12/26 04:28:22;;;;;;;19.58;9.20;;;-9.10;99.90;;;;;;5065176;28;20723;-44
2021/12/26 04:30:48;;;;;;;17.60;8.18;;;-9.10;99.90;;;;;;5066745;28;20532;-43
2021/12/26 04:33:14;;;;;;;15.57;7.78;;;-9.10;99.90;;;;;;5067412;28;20025;-43
2021/12/26 04:35:40;;;;;;;17.65;8.10;;;-9.10;99.90;;;;;;5065695;28;20628;-43
2021/12/26 04:38:05;;;;;;;17.63;8.00;;;-9.10;99.90;;;;;;5065184;28;20012;-43
2021/12/26 04:40:31;;;;;;;16.13;7.57;;;-9.10;99.90;;;;;;5065665;28;20013;-43
2021/12/26 04:42:56;;;;;;;17.80;9.40;;;-9.10;99.90;;;;;;5064860;28;20033;-43
2021/12/26 04:45:22;;;;;;;17.88;8.32;;;-9.20;99.90;;;;;;5065906;28;20405;-43
2021/12/26 04:47:49;;;;;;;21.75;8.50;;;-9.20;99.90;;;;;;5064743;28;20417;-43
2021/12/26 04:50:19;;;;;;;16.60;7.10;;;-9.20;99.90;;;;;;5061648;28;20321;-43
2021/12/26 04:52:45;;;;;;;19.23;8.43;;;-9.20;99.90;;;;;;5074208;28;20505;-43
2021/12/26 04:55:13;;;;;;;18.75;8.25;;;-9.10;99.90;;;;;;5066317;28;20400;-44
2021/12/26 04:57:39;;;;;;;21.27;8.25;;;-9.20;99.90;;;;;;5065879;28;20032;-44
2021/12/26 05:00:07;;;;;;;18.55;8.25;;;-9.20;99.90;;;;;;5068191;28;20470;-44
2021/12/26 05:02:35;;;;;;;17.65;8.20;;;-9.20;99.90;;;;;;5073015;28;20402;-44
2021/12/26 05:05:02;;;;;;;18.00;8.48;;;-9.20;99.90;;;;;;5066960;28;20035;-45
2021/12/26 05:07:28;;;;;;;13.57;7.70;;;-9.20;99.90;;;;;;5065844;28;20645;-43
2021/12/26 05:09:53;;;;;;;16.67;9.60;;;-9.20;99.90;;;;;;5065690;28;20443;-43
2021/12/26 05:12:19;;;;;;;15.25;9.45;;;-9.20;99.90;;;;;;5070212;28;20025;-43
2021/12/26 05:14:44;;;;;;;16.40;8.05;;;-9.20;99.90;;;;;;5070152;28;20085;-44
2021/12/26 05:17:09;;;;;;;18.75;8.05;;;-9.20;99.90;;;;;;5070126;28;20032;-44
2021/12/26 05:19:35;;;;;;;20.95;8.82;;;-9.20;99.90;;;;;;5070095;28;20047;-43
2021/12/26 05:22:02;;;;;;;15.48;9.55;;;-9.20;99.90;;;;;;5069766;28;20111;-44
2021/12/26 05:24:27;;;;;;;17.15;8.93;;;-9.20;99.90;;;;;;5068947;28;20601;-44
2021/12/26 05:26:53;;;;;;;18.63;9.05;;;-9.20;99.90;;;;;;5068067;28;20502;-44
2021/12/26 05:29:18;;;;;;;16.80;8.45;;;-9.20;99.90;;;;;;5069116;28;20024;-44
2021/12/26 05:31:44;;;;;;;20.27;8.50;;;-9.20;99.90;;;;;;5072801;28;20373;-46
2021/12/26 05:34:09;;;;;;;19.45;8.45;;;-9.20;99.90;;;;;;5070997;28;20509;-43
2021/12/26 05:36:35;;;;;;;17.60;7.65;;;-9.20;99.90;;;;;;5066745;28;20008;-44
2021/12/26 05:39:00;;;;;;;17.42;8.80;;;-9.20;99.90;;;;;;5068831;28;20029;-44
2021/12/26 05:41:26;;;;;;;14.48;7.75;;;-9.20;99.90;;;;;;5069639;28;20495;-46
2021/12/26 05:43:51;;;;;;;17.73;9.32;;;-9.20;99.90;;;;;;5069243;28;20020;-45
2021/12/26 05:46:17;;;;;;;18.70;9.25;;;-9.10;99.90;;;;;;5069262;28;20571;-47
2021/12/26 05:48:42;;;;;;;20.67;8.90;;;-9.20;99.90;;;;;;5069363;28;20036;-45
2021/12/26 05:51:08;;;;;;;20.35;8.43;;;-9.10;99.90;;;;;;5069620;28;20032;-46
2021/12/26 05:53:33;;;;;;;17.50;8.38;;;-9.10;99.90;;;;;;5069256;28;20407;-45
2021/12/26 05:55:59;;;;;;;21.92;9.45;;;-9.10;99.90;;;;;;5069109;28;20051;-46
2021/12/26 05:58:24;;;;;;;18.35;9.25;;;-9.10;99.90;;;;;;5068686;28;20356;-45
2021/12/26 06:00:50;;;;;;;18.38;8.35;;;-9.10;99.90;;;;;;5070361;28;20059;-45
2021/12/26 06:03:15;;;;;;;15.13;8.63;;;-9.10;99.90;;;;;;5070705;28;20536;-45
2021/12/26 06:05:41;;;;;;;18.65;8.48;;;-9.10;99.90;;;;;;5069078;28;20044;-45
2021/12/26 06:08:06;;;;;;;15.75;8.73;;;-9.20;99.90;;;;;;5068165;28;20494;-45
2021/12/26 06:10:32;;;;;;;20.00;9.82;;;-9.10;99.90;;;;;;5068675;28;20044;-45
2021/12/26 06:12:57;;;;;;;15.27;8.73;;;-9.10;99.90;;;;;;5068831;28;20024;-45
2021/12/26 06:15:23;;;;;;;20.35;8.95;;;-9.10;99.90;;;;;;5068691;28;20044;-45
2021/12/26 06:17:48;;;;;;;27.13;9.30;;;-9.10;99.90;;;;;;5067141;28;20257;-45
2021/12/26 06:20:14;;;;;;;19.42;9.43;;;-9.20;99.90;;;;;;5068698;28;20101;-45
2021/12/26 06:22:44;;;;;;;19.90;9.88;;;-9.20;99.90;;;;;;5067223;28;20020;-45
2021/12/26 06:25:12;;;;;;;23.33;8.38;;;-9.20;99.90;;;;;;5067551;28;20171;-45
2021/12/26 06:27:37;;;;;;;19.58;9.35;;;-9.20;99.90;;;;;;5066876;28;20052;-45
2021/12/26 06:30:05;;;;;;;21.58;8.77;;;-9.20;99.90;;;;;;5068145;28;20083;-44
2021/12/26 06:32:31;;;;;;;18.58;9.98;;;-9.20;99.90;;;;;;5072832;28;20024;-44
2021/12/26 06:34:57;;;;;;;21.13;8.93;;;-9.20;99.90;;;;;;5070874;28;20047;-45
2021/12/26 06:37:22;;;;;;;20.13;9.68;;;-9.20;99.90;;;;;;5064202;28;20008;-47
2021/12/26 06:39:48;;;;;;;16.15;8.43;;;-9.20;99.90;;;;;;5070382;28;20417;-45
2021/12/26 06:42:13;;;;;;;16.70;9.25;;;-9.30;99.90;;;;;;5069068;28;20085;-45
2021/12/26 06:44:39;;;;;;;24.15;10.35;;;-9.30;99.90;;;;;;5067063;28;20481;-46
2021/12/26 06:47:06;;;;;;;17.60;8.38;;;-9.30;99.90;;;;;;5064521;28;20150;-45
2021/12/26 06:49:32;;;;;;;20.13;9.18;;;-9.30;99.90;;;;;;5056461;28;20553;-45
2021/12/26 06:51:58;;;;;;;19.63;8.10;;;-9.30;99.90;;;;;;5059124;28;20103;-45
2021/12/26 06:54:24;;;;;;;16.65;8.85;;;-9.30;99.90;;;;;;5065344;28;20062;-47
2021/12/26 06:56:50;;;;;;;16.77;9.18;;;-9.30;99.90;;;;;;5057850;28;20036;-46
2021/12/26 06:59:17;;;;;;;19.55;8.45;;;-9.30;99.90;;;;;;5066086;28;20021;-47
2021/12/26 07:01:42;;;;;;;19.63;9.00;;;-9.40;99.90;;;;;;5068426;28;20039;-46
2021/12/26 07:04:08;;;;;;;20.17;9.35;;;-9.30;99.90;;;;;;5068697;28;20040;-45
2021/12/26 07:06:33;;;;;;;19.45;9.70;;;-9.30;99.90;;;;;;5067840;28;20115;-45
2021/12/26 07:08:59;;;;;;;17.70;7.97;;;-9.30;99.90;;;;;;5067008;28;20024;-45
2021/12/26 07:11:24;;;;;;;18.80;8.90;;;-9.40;99.90;;;;;;5057037;28;20107;-46
2021/12/26 07:13:50;;;;;;;17.20;8.32;;;-9.30;99.90;;;;;;5069543;28;20051;-45
2021/12/26 07:16:16;;;;;;;15.70;8.13;;;-9.30;99.90;;;;;;5083763;28;20103;-49
2021/12/26 07:18:41;;;;;;;21.17;9.57;;;-9.30;99.90;;;;;;5071822;28;20024;-46
2021/12/26 07:21:07;;;;;;;21.30;9.45;;;-9.30;99.90;;;;;;5068539;28;20017;-44
2021/12/26 07:23:32;;;;;;;20.75;9.35;;;-9.30;99.90;;;;;;5067998;28;20025;-46
2021/12/26 07:25:58;;;;;;;18.58;9.52;;;-9.30;99.90;;;;;;5067857;28;20025;-43
2021/12/26 07:28:23;;;;;;;18.80;8.88;;;-9.20;99.90;;;;;;5066773;28;20029;-43
2021/12/26 07:30:49;;;;;;;16.38;7.95;;;-9.20;99.90;;;;;;5064926;28;20016;-42
2021/12/26 07:33:14;;;;;;;15.82;7.78;;;-9.20;99.90;;;;;;5067840;28;20036;-42
2021/12/26 07:35:40;;;;;;;22.23;8.52;;;-9.20;99.90;;;;;;5066342;28;20025;-43
2021/12/26 07:38:05;;;;;;;16.70;8.73;;;-9.20;99.90;;;;;;5067155;28;20021;-42
2021/12/26 07:40:31;;;;;;;22.27;9.38;;;-9.20;99.90;;;;;;5066944;28;20128;-42
2021/12/26 07:42:57;;;;;;;18.63;8.05;;;-9.20;99.90;;;;;;5075753;28;20027;-42
2021/12/26 07:45:22;;;;;;;21.02;8.80;;;-9.20;99.90;;;;;;5067310;28;20036;-43
2021/12/26 07:47:48;;;;;;;18.92;8.52;;;-9.20;99.90;;;;;;5074713;28;20024;-43
2021/12/26 07:50:13;;;;;;;19.48;8.27;;;-9.20;99.90;;;;;;5066769;28;20454;-43
2021/12/26 07:52:42;;;;;;;16.55;7.80;;;-9.20;99.90;;;;;;5067050;28;20436;-42
2021/12/26 07:55:11;;;;;;;21.33;9.45;;;-9.20;99.90;;;;;;5067490;28;20462;-42
2021/12/26 07:57:37;;;;;;;19.55;9.60;;;-9.20;99.90;;;;;;5068885;28;20297;-42
2021/12/26 08:00:05;;;;;;;17.95;8.18;;;-9.20;99.90;;;;;;5066712;28;20025;-42
2021/12/26 08:02:30;;;;;;;16.92;7.93;;;-9.10;99.90;;;;;;5075079;28;20024;-43
2021/12/26 08:04:56;;;;;;;20.98;9.00;;;-9.10;99.90;;;;;;5084297;28;20043;-43
2021/12/26 08:07:22;;;;;;;23.00;10.15;;;-9.10;99.90;;;;;;5079031;28;20024;-44
2021/12/26 08:09:47;;;;;;;18.50;8.88;;;-9.10;99.90;;;;;;5079139;28;20021;-43
2021/12/26 08:12:13;;;;;;;18.70;8.50;;;-9.10;99.90;;;;;;5067774;28;20028;-43
2021/12/26 08:14:38;;;;;;;19.38;8.25;;;-9.10;99.90;;;;;;5066531;28;20023;-43
2021/12/26 08:17:04;;;;;;;16.98;8.70;;;-9.10;99.90;;;;;;5084113;28;20031;-43
2021/12/26 08:19:30;;;;;;;22.02;9.27;;;-9.00;99.90;;;;;;5066317;28;20024;-44
2021/12/26 08:21:55;;;;;;;24.38;10.23;;;-9.00;99.90;;;;;;5075364;28;20363;-43
2021/12/26 08:24:22;;;;;;;18.65;8.85;;;-9.00;99.90;;;;;;5087815;28;20055;-43
2021/12/26 08:26:51;;;;;;;20.35;9.30;;;-9.00;99.90;;;;;;5081795;28;20100;-43
2021/12/26 08:29:17;;;;;;;23.35;9.48;;;-9.00;99.90;;;;;;5078469;28;20066;-43
2021/12/26 08:31:44;;;;;;;21.83;9.23;;;-8.90;99.90;;;;;;5079174;28;20020;-45
2021/12/26 08:34:09;;;;;;;17.42;10.27;;;-8.90;99.90;;;;;;5079297;28;20232;-43
2021/12/26 08:36:35;;;;;;;20.45;10.00;;;-8.90;99.90;;;;;;5082625;28;20028;-43
2021/12/26 08:39:03;;;;;;;21.30;8.77;;;-8.90;99.90;;;;;;5078069;28;20034;-43
2021/12/26 08:41:29;;;;;;;19.38;10.48;;;-8.80;99.90;;;;;;5082857;28;20020;-43
2021/12/26 08:43:55;;;;;;;20.65;10.27;;;-8.80;99.90;;;;;;5078678;28;20074;-43
2021/12/26 08:46:21;;;;;;;21.80;9.30;;;-8.80;99.90;;;;;;5090219;28;20422;-43
2021/12/26 08:48:47;;;;;;;24.77;10.02;;;-8.70;99.90;;;;;;5086708;28;20501;-43
2021/12/26 08:51:13;;;;;;;22.42;10.93;;;-8.70;99.90;;;;;;5078958;28;20605;-43
2021/12/26 08:53:39;;;;;;;23.15;10.05;;;-8.60;99.90;;;;;;5076735;28;20039;-43
2021/12/26 08:56:04;;;;;;;22.58;9.82;;;-8.50;99.90;;;;;;5081336;28;20020;-43
2021/12/26 08:58:30;;;;;;;26.27;10.77;;;-8.50;99.90;;;;;;5088339;28;20046;-43
2021/12/26 09:00:56;;;;;;;21.73;10.50;;;-8.40;99.90;;;;;;5075426;28;20016;-43
2021/12/26 09:03:21;;;;;;;26.35;11.48;;;-8.40;99.90;;;;;;5073801;28;20085;-43
2021/12/26 09:05:47;;;;;;;27.42;11.05;;;-8.40;99.90;;;;;;5082504;28;20031;-43
2021/12/26 09:08:12;;;;;;;25.75;11.27;;;-8.30;99.90;;;;;;5087531;28;20140;-43
2021/12/26 09:10:39;;;;;;;20.92;10.80;;;-8.30;99.90;;;;;;5079176;28;20436;-42
2021/12/26 09:13:06;;;;;;;22.38;10.45;;;-8.30;99.90;;;;;;5075220;28;20038;-43
2021/12/26 09:15:32;;;;;;;19.50;10.95;;;-8.20;99.90;;;;;;5080371;28;20393;-43
2021/12/26 09:17:59;;;;;;;26.27;12.25;;;-8.10;99.90;;;;;;5082879;28;20128;-44
2021/12/26 09:20:25;;;;;;;22.58;10.80;;;-8.10;99.90;;;;;;5069571;28;20017;-45
2021/12/26 09:22:51;;;;;;;30.75;12.80;;;-8.00;99.90;;;;;;5069701;28;20478;-45
2021/12/26 09:25:17;;;;;;;27.40;11.80;;;-7.90;99.90;;;;;;5069043;28;20051;-45
2021/12/26 09:27:42;;;;;;;25.70;11.75;;;-7.90;99.90;;;;;;5069721;28;20052;-46
2021/12/26 09:30:09;;;;;;;25.08;12.50;;;-7.80;99.90;;;;;;5068791;28;20025;-46
2021/12/26 09:32:35;;;;;;;37.05;12.40;;;-7.70;99.90;;;;;;5069355;28;20100;-45
2021/12/26 09:35:01;;;;;;;25.65;12.23;;;-7.70;99.90;;;;;;5065367;28;20031;-48
2021/12/26 09:37:27;;;;;;;26.63;11.65;;;-7.60;99.90;;;;;;5067375;28;20449;-44
2021/12/26 09:39:53;;;;;;;23.90;11.57;;;-7.60;99.90;;;;;;5065012;28;20071;-44
2021/12/26 09:42:19;;;;;;;25.85;11.50;;;-7.50;99.90;;;;;;5074746;28;20724;-46
2021/12/26 09:44:45;;;;;;;25.83;12.32;;;-7.40;99.90;;;;;;5076050;28;20026;-45
2021/12/26 09:47:11;;;;;;;27.05;10.68;;;-7.40;99.90;;;;;;5071101;28;20349;-45
2021/12/26 09:49:36;;;;;;;20.90;10.50;;;-7.40;99.90;;;;;;5073058;28;20074;-45
2021/12/26 09:52:04;;;;;;;22.88;11.25;;;-7.30;99.90;;;;;;5067455;28;20064;-46
2021/12/26 09:54:29;;;;;;;25.27;11.43;;;-7.20;99.90;;;;;;5068349;28;20385;-45
2021/12/26 09:56:55;;;;;;;21.40;9.85;;;-7.10;99.90;;;;;;5067890;28;20024;-45
2021/12/26 09:59:23;;;;;;;24.83;11.43;;;-7.10;99.90;;;;;;5067959;28;20339;-46
2021/12/26 10:01:51;;;;;;;23.52;11.38;;;-7.00;99.90;;;;;;5069802;28;20024;-47
2021/12/26 10:04:29;;;;;;;30.38;12.48;;;-7.00;99.90;;;;;;5074267;28;20042;-46
2021/12/26 10:07:00;;;;;;;25.52;11.45;;;-6.90;99.90;;;;;;5072996;28;20046;-44
2021/12/26 10:09:27;;;;;;;23.60;10.98;;;-6.80;99.90;;;;;;5068058;28;20029;-48
2021/12/26 10:11:55;;;;;;;27.80;11.20;;;-6.70;99.90;;;;;;5077488;28;20020;-45
2021/12/26 10:14:33;;;;;;;22.90;10.82;;;-6.50;99.90;;;;;;5054567;28;20025;-45
2021/12/26 10:17:08;;;;;;;26.15;12.50;;;-6.50;99.90;;;;;;5077239;28;20039;-47
2021/12/26 10:19:37;;;;;;;25.92;12.35;;;-6.30;99.90;;;;;;5089466;28;20362;-47
2021/12/26 10:22:04;;;;;;;27.92;11.85;;;-6.20;99.90;;;;;;5076705;28;20052;-44
2021/12/26 10:24:33;;;;;;;27.77;12.90;;;-6.10;99.90;;;;;;5068744;28;20025;-45
2021/12/26 10:27:04;;;;;;;24.55;10.48;;;-6.00;99.90;;;;;;5068704;28;20034;-46
2021/12/26 10:29:38;;;;;;;26.55;11.90;;;-5.90;99.90;;;;;;5066840;28;20474;-45
2021/12/26 10:32:25;;;;;;;23.52;11.85;;;-5.70;99.90;;;;;;5068644;28;20021;-45
2021/12/26 10:34:51;;;;;;;24.70;11.27;;;-5.60;99.90;;;;;;5075176;28;20643;-46
2021/12/26 10:37:40;;;;;;;30.70;12.30;;;-5.50;99.90;;;;;;5068522;28;20020;-47
2021/12/26 10:40:22;;;;;;;21.88;10.98;;;-5.30;99.90;;;;;;5080172;28;20044;-48
2021/12/26 10:43:00;;;;;;;22.98;11.40;;;-5.00;99.90;;;;;;5089895;28;20594;-46
2021/12/26 10:45:29;;;;;;;24.08;10.45;;;-4.70;99.90;;;;;;5083475;28;20478;-45
2021/12/26 10:48:01;;;;;;;19.88;9.70;;;-3.80;99.90;;;;;;5078384;28;20027;-46
2021/12/26 10:50:29;;;;;;;19.55;9.68;;;-2.10;99.90;;;;;;5081795;28;20266;-45
2021/12/26 10:52:58;;;;;;;20.65;10.13;;;-0.10;99.90;;;;;;5081718;28;20037;-45
2021/12/26 10:55:36;;;;;;;17.02;9.60;;;1.40;99.90;;;;;;5079762;28;20020;-48
2021/12/26 10:58:05;;;;;;;18.88;9.82;;;2.90;95.40;;;;;;5074547;28;20051;-46
2021/12/26 11:00:37;;;;;;;14.38;8.82;;;3.50;90.70;;;;;;5074908;28;20501;-46
2021/12/26 11:03:22;;;;;;;14.60;9.38;;;4.40;87.50;;;;;;5081406;28;20036;-48
2021/12/26 11:05:53;;;;;;;15.50;9.18;;;5.40;76.60;;;;;;5068898;28;20036;-46
2021/12/26 11:08:29;;;;;;;14.00;8.88;;;5.90;72.60;;;;;;5075050;28;20516;-47
2021/12/26 11:10:56;;;;;;;15.65;8.02;;;6.40;73.50;;;;;;5065851;28;20042;-47
2021/12/26 11:13:27;;;;;;;14.50;9.27;;;7.00;66.60;;;;;;5076606;28;20035;-48
2021/12/26 11:15:58;;;;;;;12.45;8.27;;;6.80;65.30;;;;;;5065279;28;20401;-46
2021/12/26 11:18:25;;;;;;;17.30;8.15;;;5.50;65.70;;;;;;5066683;28;20032;-47
2021/12/26 11:21:06;;;;;;;14.75;9.75;;;4.00;70.40;;;;;;5066951;28;20508;-45
2021/12/26 11:23:34;;;;;;;17.90;9.30;;;2.70;73.60;;;;;;5062462;28;20028;-46
2021/12/26 11:26:03;;;;;;;14.63;9.25;;;1.60;78.60;;;;;;5068442;28;20424;-46
2021/12/26 11:28:32;;;;;;;15.35;8.38;;;0.60;85.30;;;;;;5065372;28;20086;-47
2021/12/26 11:31:01;;;;;;;16.58;9.20;;;-0.30;90.30;;;;;;5075848;28;20039;-45
2021/12/26 11:33:28;;;;;;;16.05;8.93;;;-0.90;93.00;;;;;;5074636;28;20021;-45
2021/12/26 11:35:55;;;;;;;17.25;9.35;;;-1.40;95.20;;;;;;5067215;28;20040;-46
2021/12/26 11:38:22;;;;;;;23.08;10.40;;;-1.70;98.20;;;;;;5069642;28;20021;-45
2021/12/26 11:40:49;;;;;;;17.23;9.38;;;-2.10;99.90;;;;;;5067165;28;20104;-45
2021/12/26 11:44:03;;;;;;;20.67;8.80;;;-2.40;99.90;;;;;;5074535;28;20035;-46
2021/12/26 11:46:52;;;;;;;16.23;8.82;;;-2.60;99.90;;;;;;5050492;28;20199;-47
2021/12/26 11:49:50;;;;;;;19.98;8.88;;;-2.70;99.90;;;;;;5076760;28;20016;-46
2021/12/26 11:52:27;;;;;;;20.13;9.48;;;-2.90;99.90;;;;;;5079338;28;20398;-45
2021/12/26 11:55:14;;;;;;;19.77;9.77;;;-3.00;99.90;;;;;;5085835;28;20034;-47
2021/12/26 11:58:10;;;;;;;18.92;8.95;;;-3.00;99.90;;;;;;5070869;28;20478;-43
2021/12/26 12:00:38;;;;;;;16.48;8.52;;;-3.00;99.90;;;;;;5068116;28;20025;-44
2021/12/26 12:03:15;;;;;;;21.42;11.75;;;-3.10;99.90;;;;;;5075843;28;20029;-44
2021/12/26 12:05:43;;;;;;;18.10;8.98;;;-3.20;99.90;;;;;;5068606;28;20056;-47
2021/12/26 12:08:08;;;;;;;24.45;9.93;;;-3.30;99.90;;;;;;5066298;28;20035;-44
2021/12/26 12:10:42;;;;;;;19.98;9.25;;;-3.40;99.90;;;;;;5069443;28;20028;-44
2021/12/26 12:13:23;;;;;;;24.23;9.98;;;-3.40;99.90;;;;;;5070977;28;20040;-43
2021/12/26 12:15:52;;;;;;;;;;;-3.40;99.90;;;;;;5082499;28;20029;-44
2021/12/26 12:18:26;;;;;;;22.30;8.63;;;-3.40;99.90;;;;;;5067737;28;19913;-43
2021/12/26 12:21:15;;;;;;;21.27;10.50;;;-3.40;99.90;;;;;;5065108;28;20071;-45
2021/12/26 12:24:12;;;;;;;16.45;8.68;;;-3.40;99.90;;;;;;5067227;28;20130;-44
2021/12/26 12:26:57;;;;;;;17.75;9.43;;;-3.50;99.90;;;;;;5061238;28;20091;-43
2021/12/26 12:29:28;;;;;;;18.30;9.20;;;-3.50;99.90;;;;;;5067268;28;20029;-44
2021/12/26 12:32:08;;;;;;;17.60;9.15;;;-3.50;99.90;;;;;;5066903;28;20028;-43
2021/12/26 12:35:01;;;;;;;20.77;8.95;;;-3.60;99.90;;;;;;5066474;28;20301;-43
2021/12/26 12:37:41;;;;;;;16.10;9.52;;;-3.60;99.90;;;;;;5065108;28;20110;-43
2021/12/26 12:40:15;;;;;;;18.58;8.57;;;-3.70;99.90;;;;;;5069221;28;20123;-43
2021/12/26 12:43:03;;;;;;;15.68;9.18;;;-3.60;99.90;;;;;;5062265;28;20513;-43
2021/12/26 12:45:29;;;;;;;16.13;8.50;;;-3.60;99.90;;;;;;5060627;28;20051;-44